Time;durP1;ratioP1;P1;durP2;ratioP2;P2;SDS_P1;SDS_P2;PMS_P1;PMS_P2;Temp;Humidity;BMP_temperature;BMP_pressure;BME280_temperature;BME280_humidity;BME280_pressure;Samples;Min_cycle;Max_cycle;Signal;HPM_P1;HPM_P2
2021/10/27 00:00:31;;;;;;;1.30;1.10;;;8.60;98.00;;;;;;5091995;28;20869;-67
2021/10/27 00:02:58;;;;;;;1.37;1.33;;;8.70;98.00;;;;;;5092026;28;20481;-68
2021/10/27 00:05:25;;;;;;;2.30;1.20;;;8.70;98.00;;;;;;5091987;28;20515;-69
2021/10/27 00:07:54;;;;;;;1.20;1.00;;;8.40;98.00;;;;;;5091593;28;20455;-68
2021/10/27 00:10:21;;;;;;;1.50;1.47;;;8.30;98.00;;;;;;5091629;28;20489;-68
2021/10/27 00:12:49;;;;;;;1.57;1.30;;;8.30;98.00;;;;;;5091922;28;20478;-69
2021/10/27 00:15:17;;;;;;;1.73;1.50;;;8.20;98.00;;;;;;5092004;28;20527;-67
2021/10/27 00:17:44;;;;;;;1.53;1.07;;;8.10;98.00;;;;;;5091916;28;21010;-67
2021/10/27 00:20:12;;;;;;;1.53;1.30;;;7.90;98.00;;;;;;5091916;28;20990;-66
2021/10/27 00:22:41;;;;;;;1.20;1.00;;;7.80;98.00;;;;;;5091575;28;20485;-68
2021/10/27 00:25:10;;;;;;;2.07;1.50;;;7.90;98.00;;;;;;5091823;28;21016;-69
2021/10/27 00:27:37;;;;;;;1.70;1.60;;;7.90;98.00;;;;;;5091820;28;20458;-69
2021/10/27 00:30:05;;;;;;;1.20;1.10;;;8.10;98.00;;;;;;5091631;28;20462;-68
2021/10/27 00:32:32;;;;;;;1.20;1.00;;;8.20;98.00;;;;;;5091247;28;20482;-67
2021/10/27 00:34:59;;;;;;;1.77;1.50;;;8.30;98.00;;;;;;5091422;28;20488;-69
2021/10/27 00:37:26;;;;;;;1.30;1.10;;;8.30;98.00;;;;;;5091512;28;20553;-68
2021/10/27 00:39:54;;;;;;;1.20;1.10;;;8.20;98.00;;;;;;5091068;28;20899;-69
2021/10/27 00:42:23;;;;;;;1.50;1.27;;;8.10;98.00;;;;;;5091480;28;20470;-68
2021/10/27 00:44:50;;;;;;;1.70;1.33;;;8.10;98.00;;;;;;5091051;28;20451;-67
2021/10/27 00:47:17;;;;;;;1.30;1.10;;;7.90;98.00;;;;;;5091383;28;20858;-66
2021/10/27 00:49:47;;;;;;;1.30;1.00;;;7.80;98.00;;;;;;5091493;28;20521;-67
2021/10/27 00:52:15;;;;;;;1.30;1.10;;;7.70;98.00;;;;;;5091371;28;20494;-69
2021/10/27 00:54:44;;;;;;;1.73;1.20;;;7.60;98.00;;;;;;5091430;28;20513;-67
2021/10/27 00:57:12;;;;;;;1.20;1.00;;;7.50;98.00;;;;;;5091288;28;20536;-68
2021/10/27 00:59:42;;;;;;;1.20;1.00;;;7.50;98.00;;;;;;5091236;28;20474;-68
2021/10/27 01:02:10;;;;;;;1.20;1.00;;;7.60;98.00;;;;;;5091379;28;20477;-69
2021/10/27 01:04:38;;;;;;;1.20;1.10;;;7.60;98.00;;;;;;5090171;28;20485;-69
2021/10/27 01:07:05;;;;;;;1.30;1.20;;;7.80;98.00;;;;;;5091357;28;20460;-67
2021/10/27 01:09:34;;;;;;;1.20;1.00;;;8.00;98.00;;;;;;5091412;28;20950;-67
2021/10/27 01:12:01;;;;;;;1.80;1.30;;;7.80;98.00;;;;;;5091450;28;20573;-67
2021/10/27 01:14:34;;;;;;;1.20;1.00;;;7.80;98.00;;;;;;5091147;28;21014;-67
2021/10/27 01:17:03;;;;;;;1.73;1.10;;;7.90;98.00;;;;;;5090887;28;20455;-67
2021/10/27 01:19:40;;;;;;;1.20;0.90;;;8.00;98.00;;;;;;5093447;28;20542;-68
2021/10/27 01:22:07;;;;;;;1.40;1.10;;;8.20;98.00;;;;;;5093880;28;20490;-68
2021/10/27 01:24:34;;;;;;;2.17;1.10;;;8.10;98.00;;;;;;5094974;28;20469;-68
2021/10/27 01:27:01;;;;;;;1.20;1.10;;;7.90;98.00;;;;;;5094969;28;20489;-68
2021/10/27 01:29:28;;;;;;;1.20;1.17;;;7.70;98.00;;;;;;5093677;28;20493;-67
2021/10/27 01:31:55;;;;;;;1.27;1.10;;;7.50;98.00;;;;;;5093071;28;20528;-68
2021/10/27 01:34:22;;;;;;;1.20;1.00;;;7.40;98.00;;;;;;5094146;28;20481;-67
2021/10/27 01:36:50;;;;;;;1.20;1.00;;;7.40;98.00;;;;;;5093865;28;20460;-68
2021/10/27 01:39:17;;;;;;;1.20;1.00;;;7.30;98.00;;;;;;5094157;28;20460;-67
2021/10/27 01:41:44;;;;;;;2.50;1.70;;;7.40;98.00;;;;;;5094547;28;20448;-68
2021/10/27 01:44:11;;;;;;;1.20;1.00;;;7.40;98.00;;;;;;5094694;28;20495;-69
2021/10/27 01:46:39;;;;;;;1.20;1.00;;;7.50;98.00;;;;;;5094754;28;20519;-67
2021/10/27 01:49:08;;;;;;;1.37;1.10;;;7.70;98.00;;;;;;5093698;28;20864;-67
2021/10/27 01:51:37;;;;;;;1.20;0.90;;;7.80;98.00;;;;;;5094313;28;20515;-67
2021/10/27 01:54:06;;;;;;;1.20;1.00;;;7.70;98.00;;;;;;5094050;28;20457;-68
2021/10/27 01:56:34;;;;;;;1.50;1.10;;;7.70;98.00;;;;;;5094183;28;20559;-68
2021/10/27 01:59:01;;;;;;;1.20;1.03;;;7.60;98.00;;;;;;5094096;28;20464;-69
2021/10/27 02:01:28;;;;;;;1.20;1.00;;;7.40;98.00;;;;;;5093974;28;20797;-68
2021/10/27 02:03:56;;;;;;;2.07;1.40;;;7.30;98.00;;;;;;5094041;28;20523;-67
2021/10/27 02:06:25;;;;;;;1.20;1.10;;;7.30;98.00;;;;;;5094074;28;20448;-67
2021/10/27 02:08:52;;;;;;;1.87;1.20;;;7.20;98.00;;;;;;5094013;28;20484;-68
2021/10/27 02:11:22;;;;;;;1.60;1.20;;;7.20;98.00;;;;;;5093840;28;21063;-67
2021/10/27 02:13:49;;;;;;;1.20;1.03;;;7.10;98.00;;;;;;5093836;28;20541;-70
2021/10/27 02:16:16;;;;;;;1.20;1.20;;;7.10;98.00;;;;;;5093828;28;20448;-67
2021/10/27 02:18:43;;;;;;;1.20;1.10;;;7.30;98.00;;;;;;5093795;28;20463;-67
2021/10/27 02:21:10;;;;;;;1.80;1.40;;;7.40;98.00;;;;;;5092517;28;20840;-67
2021/10/27 02:23:38;;;;;;;1.20;1.07;;;7.30;98.00;;;;;;5093705;28;20464;-68
2021/10/27 02:26:05;;;;;;;1.20;1.00;;;7.30;98.00;;;;;;5093690;28;20456;-69
2021/10/27 02:28:42;;;;;;;2.17;1.77;;;7.20;98.00;;;;;;5093464;28;20465;-68
2021/10/27 02:31:09;;;;;;;1.60;1.20;;;7.30;98.00;;;;;;5093163;28;20461;-67
2021/10/27 02:33:36;;;;;;;1.20;1.10;;;7.20;98.00;;;;;;5093370;28;20484;-68
2021/10/27 02:36:03;;;;;;;2.07;1.20;;;7.10;98.00;;;;;;5093420;28;20511;-67
2021/10/27 02:38:30;;;;;;;1.20;1.10;;;7.00;98.00;;;;;;5093367;28;20460;-67
2021/10/27 02:40:57;;;;;;;1.30;1.30;;;6.90;98.00;;;;;;5093368;28;20459;-69
2021/10/27 02:43:24;;;;;;;1.20;0.90;;;7.00;98.00;;;;;;5093485;28;20517;-67
2021/10/27 02:45:53;;;;;;;1.20;1.00;;;7.00;98.00;;;;;;5093193;28;20453;-67
2021/10/27 02:48:20;;;;;;;1.20;1.10;;;7.20;98.00;;;;;;5093239;28;20514;-69
2021/10/27 02:50:47;;;;;;;1.40;1.07;;;7.30;98.00;;;;;;5093276;28;20458;-68
2021/10/27 02:53:14;;;;;;;1.20;1.10;;;7.30;98.00;;;;;;5093326;28;20891;-67
2021/10/27 02:55:41;;;;;;;1.60;1.37;;;7.20;98.00;;;;;;5093006;28;20456;-68
2021/10/27 02:58:08;;;;;;;1.47;1.20;;;7.30;98.00;;;;;;5092934;28;20465;-69
2021/10/27 03:00:35;;;;;;;1.20;1.10;;;7.30;98.00;;;;;;5093099;28;20467;-68
2021/10/27 03:03:04;;;;;;;1.30;1.30;;;7.20;98.00;;;;;;5093134;28;20949;-67
2021/10/27 03:05:31;;;;;;;1.40;1.27;;;7.00;98.00;;;;;;5093255;28;20483;-67
2021/10/27 03:07:58;;;;;;;1.47;1.10;;;6.90;98.00;;;;;;5093262;28;20922;-67
2021/10/27 03:10:26;;;;;;;1.30;1.30;;;6.90;98.00;;;;;;5092644;28;20459;-67
2021/10/27 03:12:53;;;;;;;3.20;1.50;;;7.00;98.00;;;;;;5093278;28;20511;-67
2021/10/27 03:15:20;;;;;;;1.63;1.10;;;7.00;98.00;;;;;;5092409;28;20458;-67
2021/10/27 03:17:47;;;;;;;1.20;1.00;;;7.00;98.00;;;;;;5092772;28;20499;-70
2021/10/27 03:20:16;;;;;;;1.63;1.40;;;7.00;98.00;;;;;;5092682;28;20939;-68
2021/10/27 03:22:43;;;;;;;1.53;1.20;;;7.10;98.00;;;;;;5092623;28;20864;-68
2021/10/27 03:25:10;;;;;;;1.30;1.23;;;7.20;98.00;;;;;;5091013;28;20456;-69
2021/10/27 03:27:37;;;;;;;1.20;1.00;;;7.00;98.00;;;;;;5092542;28;20955;-67
2021/10/27 03:30:06;;;;;;;1.20;1.10;;;6.80;98.00;;;;;;5092276;28;20452;-68
2021/10/27 03:32:34;;;;;;;1.40;1.13;;;6.70;98.00;;;;;;5092386;28;20487;-68
2021/10/27 03:35:01;;;;;;;1.20;1.00;;;6.70;98.00;;;;;;5092245;28;20510;-68
2021/10/27 03:37:30;;;;;;;1.50;1.23;;;6.70;98.00;;;;;;5092492;28;20464;-67
2021/10/27 03:39:57;;;;;;;1.93;1.37;;;6.70;98.00;;;;;;5092282;28;20460;-67
2021/10/27 03:42:24;;;;;;;1.20;0.93;;;6.70;98.00;;;;;;5091527;28;20868;-68
2021/10/27 03:44:52;;;;;;;1.63;1.30;;;6.60;98.00;;;;;;5092130;28;20488;-67
2021/10/27 03:47:19;;;;;;;1.50;1.13;;;6.70;98.00;;;;;;5092102;28;20972;-67
2021/10/27 03:49:46;;;;;;;1.20;1.00;;;6.60;98.00;;;;;;5092117;28;20870;-67
2021/10/27 03:52:14;;;;;;;1.20;1.13;;;6.70;98.00;;;;;;5092145;28;20818;-68
2021/10/27 03:54:42;;;;;;;2.40;1.43;;;6.70;98.00;;;;;;5091804;28;20481;-68
2021/10/27 03:57:09;;;;;;;1.20;1.00;;;6.60;98.00;;;;;;5091975;28;20510;-67
2021/10/27 03:59:36;;;;;;;1.40;1.40;;;6.50;98.00;;;;;;5090640;28;20492;-68
2021/10/27 04:02:06;;;;;;;3.90;1.60;;;6.60;98.00;;;;;;5074247;28;20435;-69
2021/10/27 04:04:33;;;;;;;1.20;1.00;;;6.70;98.00;;;;;;5092071;28;21009;-68
2021/10/27 04:07:00;;;;;;;1.20;1.00;;;6.70;98.00;;;;;;5092060;28;20784;-68
2021/10/27 04:09:27;;;;;;;1.20;1.10;;;6.70;98.00;;;;;;5091970;28;20460;-70
2021/10/27 04:11:56;;;;;;;1.60;1.50;;;6.60;98.00;;;;;;5091992;28;20504;-68
2021/10/27 04:14:23;;;;;;;1.30;1.07;;;6.50;98.00;;;;;;5091830;28;20559;-68
2021/10/27 04:16:51;;;;;;;1.77;1.20;;;6.60;98.00;;;;;;5092017;28;20463;-67
2021/10/27 04:19:18;;;;;;;1.20;0.90;;;6.90;98.00;;;;;;5092021;28;20547;-67
2021/10/27 04:21:46;;;;;;;1.60;1.20;;;6.90;98.00;;;;;;5091979;28;20516;-68
2021/10/27 04:24:13;;;;;;;1.50;1.23;;;6.90;98.00;;;;;;5091964;28;20462;-69
2021/10/27 04:26:41;;;;;;;3.20;1.30;;;6.80;98.00;;;;;;5091922;28;20455;-68
2021/10/27 04:29:09;;;;;;;1.20;1.13;;;6.80;98.00;;;;;;5091889;28;20458;-67
2021/10/27 04:31:36;;;;;;;1.30;1.30;;;6.80;98.00;;;;;;5091778;28;20861;-67
2021/10/27 04:34:03;;;;;;;1.33;1.13;;;6.70;98.00;;;;;;5091730;28;20561;-69
2021/10/27 04:36:31;;;;;;;1.70;1.20;;;6.80;98.00;;;;;;5091731;28;20480;-68
2021/10/27 04:38:58;;;;;;;1.70;1.23;;;6.80;98.00;;;;;;5091410;28;20505;-67
2021/10/27 04:41:25;;;;;;;1.20;1.00;;;6.70;98.00;;;;;;5091544;28;20459;-70
2021/10/27 04:43:52;;;;;;;1.63;1.23;;;6.60;98.00;;;;;;5091683;28;20499;-68
2021/10/27 04:46:20;;;;;;;1.30;1.20;;;6.60;98.00;;;;;;5091353;28;20482;-68
2021/10/27 04:48:47;;;;;;;1.30;1.10;;;6.50;98.00;;;;;;5091458;28;20464;-68
2021/10/27 04:51:14;;;;;;;1.20;1.00;;;6.60;98.00;;;;;;5091374;28;20456;-69
2021/10/27 04:53:41;;;;;;;2.07;1.20;;;6.70;98.00;;;;;;5093754;28;20511;-67
2021/10/27 04:56:08;;;;;;;1.53;1.07;;;6.80;98.00;;;;;;5095334;28;20940;-68
2021/10/27 04:58:35;;;;;;;1.30;1.00;;;6.70;98.00;;;;;;5095274;28;20993;-69
2021/10/27 05:01:02;;;;;;;1.80;1.40;;;6.80;98.00;;;;;;5095106;28;20477;-68
2021/10/27 05:03:32;;;;;;;2.00;1.93;;;6.90;98.00;;;;;;5095226;28;20487;-70
2021/10/27 05:06:01;;;;;;;1.20;1.00;;;6.80;98.00;;;;;;5095185;28;20492;-68
2021/10/27 05:08:31;;;;;;;2.07;1.33;;;6.80;98.00;;;;;;5095213;28;20476;-69
2021/10/27 05:10:58;;;;;;;1.53;1.20;;;6.70;98.00;;;;;;5093856;28;20459;-69
2021/10/27 05:13:27;;;;;;;2.73;1.37;;;6.70;98.00;;;;;;5095151;28;20934;-69
2021/10/27 05:15:54;;;;;;;1.20;1.03;;;6.80;98.00;;;;;;5093744;28;20487;-67
2021/10/27 05:18:21;;;;;;;1.47;1.10;;;6.80;98.00;;;;;;5095136;28;20832;-68
2021/10/27 05:20:49;;;;;;;2.70;1.47;;;6.70;98.00;;;;;;5095009;28;20444;-68
2021/10/27 05:23:17;;;;;;;1.20;1.00;;;6.90;98.00;;;;;;5094837;28;20484;-68
2021/10/27 05:25:44;;;;;;;1.20;1.00;;;6.90;98.00;;;;;;5094890;28;20456;-68
2021/10/27 05:28:11;;;;;;;1.20;1.00;;;7.00;98.00;;;;;;5095114;28;20460;-67
2021/10/27 05:30:38;;;;;;;2.63;1.67;;;7.00;98.00;;;;;;5094773;28;20460;-68
2021/10/27 05:33:05;;;;;;;1.70;1.23;;;7.10;98.00;;;;;;5093632;28;20484;-68
2021/10/27 05:35:32;;;;;;;1.90;1.70;;;6.90;98.00;;;;;;5094787;28;21009;-69
2021/10/27 05:38:01;;;;;;;1.40;1.20;;;6.70;98.00;;;;;;5094932;28;20465;-69
2021/10/27 05:40:31;;;;;;;1.20;1.00;;;6.70;98.00;;;;;;5094343;28;20842;-68
2021/10/27 05:42:58;;;;;;;1.20;1.10;;;6.70;98.00;;;;;;5094329;28;20456;-67
2021/10/27 05:45:27;;;;;;;1.30;1.20;;;6.80;98.00;;;;;;5094834;28;20520;-67
2021/10/27 05:47:56;;;;;;;2.07;1.20;;;6.70;98.00;;;;;;5094737;28;20522;-68
2021/10/27 05:50:29;;;;;;;2.07;1.53;;;6.80;98.00;;;;;;5094522;28;20451;-68
2021/10/27 05:55:42;;;;;;;1.20;1.10;;;6.70;98.00;;;;;;5094383;28;21029;-68
2021/10/27 05:58:10;;;;;;;1.20;1.00;;;6.80;98.00;;;;;;5094512;28;20876;-68
2021/10/27 06:00:38;;;;;;;4.33;1.40;;;6.80;98.00;;;;;;5094136;28;21070;-67
2021/10/27 06:03:05;;;;;;;1.93;1.30;;;6.60;98.00;;;;;;5094228;28;20489;-66
2021/10/27 06:05:32;;;;;;;1.20;1.00;;;6.40;98.00;;;;;;5093359;28;20963;-66
2021/10/27 06:08:00;;;;;;;1.20;1.00;;;6.40;98.00;;;;;;5093950;28;20532;-66
2021/10/27 06:10:27;;;;;;;1.20;1.17;;;6.50;98.00;;;;;;5093891;28;20604;-66
2021/10/27 06:13:01;;;;;;;1.20;1.00;;;6.50;98.00;;;;;;5094071;28;20466;-66
2021/10/27 06:15:28;;;;;;;1.30;1.20;;;6.50;98.00;;;;;;5093771;28;20468;-66
2021/10/27 06:17:55;;;;;;;1.80;1.40;;;6.70;98.00;;;;;;5093974;28;20460;-67
2021/10/27 06:20:23;;;;;;;1.43;1.20;;;6.70;98.00;;;;;;5092491;28;20516;-67
2021/10/27 06:22:51;;;;;;;1.30;1.27;;;6.60;98.00;;;;;;5093420;28;20504;-67
2021/10/27 06:25:18;;;;;;;2.40;1.23;;;6.60;98.00;;;;;;5093446;28;20551;-66
2021/10/27 06:27:47;;;;;;;1.80;1.30;;;6.60;98.00;;;;;;5092489;28;20456;-66
2021/10/27 06:30:19;;;;;;;1.40;1.20;;;6.50;98.00;;;;;;5093827;28;20463;-66
2021/10/27 06:32:57;;;;;;;1.77;1.30;;;6.40;98.00;;;;;;5092230;28;20468;-67
2021/10/27 06:35:27;;;;;;;1.20;1.00;;;6.40;98.00;;;;;;5093466;28;20514;-67
2021/10/27 06:48:50;;;;;;;1.27;1.17;;;6.80;98.00;;;;;;5093458;28;20448;-66
2021/10/27 06:51:17;;;;;;;1.40;1.23;;;6.80;98.00;;;;;;5093071;28;20453;-66
2021/10/27 06:53:44;;;;;;;1.30;1.10;;;6.90;98.00;;;;;;5093039;28;20559;-65
2021/10/27 06:56:13;;;;;;;1.40;1.00;;;6.90;98.00;;;;;;5093098;28;20451;-66
2021/10/27 06:58:45;;;;;;;1.30;1.20;;;6.80;98.00;;;;;;5092889;28;20464;-66
2021/10/27 07:01:19;;;;;;;1.40;1.17;;;6.70;98.00;;;;;;5093065;28;20460;-65
2021/10/27 07:15:13;;;;;;;1.53;1.10;;;6.80;98.00;;;;;;5092141;28;20530;-65
2021/10/27 07:17:48;;;;;;;1.20;0.97;;;6.70;98.00;;;;;;5090281;28;20447;-66
2021/10/27 07:20:15;;;;;;;1.47;1.17;;;6.60;98.00;;;;;;5093031;28;20458;-64
2021/10/27 07:22:43;;;;;;;1.20;1.10;;;6.70;98.00;;;;;;5095577;28;20479;-66
2021/10/27 07:25:10;;;;;;;1.20;1.00;;;6.70;98.00;;;;;;5107866;28;21062;-66
2021/10/27 07:27:38;;;;;;;2.23;1.67;;;6.80;98.00;;;;;;5103578;28;20468;-66
2021/10/27 07:30:06;;;;;;;1.77;1.47;;;6.90;98.00;;;;;;5091438;28;20480;-69
2021/10/27 07:32:34;;;;;;;1.20;1.10;;;7.00;98.00;;;;;;5100378;28;20458;-68
2021/10/27 07:35:13;;;;;;;1.20;1.00;;;7.00;98.00;;;;;;5099093;28;20486;-68
2021/10/27 07:40:34;;;;;;;1.30;1.03;;;7.00;98.00;;;;;;5091765;28;20580;-64
2021/10/27 07:43:06;;;;;;;2.27;1.93;;;7.00;98.00;;;;;;5088903;28;20460;-67
2021/10/27 07:45:34;;;;;;;1.20;1.00;;;7.10;98.00;;;;;;5083107;28;20817;-67
2021/10/27 07:48:02;;;;;;;1.50;1.10;;;7.10;98.00;;;;;;5105410;28;20958;-67
2021/10/27 07:50:31;;;;;;;1.20;1.00;;;7.10;98.00;;;;;;5097683;28;20475;-67
2021/10/27 07:52:59;;;;;;;1.67;1.10;;;7.10;98.00;;;;;;5099186;28;20475;-67
2021/10/27 07:55:28;;;;;;;1.43;1.37;;;7.20;98.00;;;;;;5099185;28;20494;-67
2021/10/27 07:57:55;;;;;;;1.60;1.50;;;7.10;98.00;;;;;;5087226;28;20460;-67
2021/10/27 08:00:23;;;;;;;1.83;1.27;;;7.00;98.00;;;;;;5096810;28;20983;-66
2021/10/27 08:02:51;;;;;;;1.40;1.23;;;7.10;98.00;;;;;;5101713;28;20489;-69
2021/10/27 08:05:18;;;;;;;1.10;0.90;;;7.30;98.00;;;;;;5111961;28;20495;-68
2021/10/27 08:07:48;;;;;;;1.70;1.60;;;7.50;98.00;;;;;;5112198;28;20484;-67
2021/10/27 08:10:15;;;;;;;1.43;1.23;;;7.50;98.00;;;;;;5112252;28;20511;-68
2021/10/27 08:12:44;;;;;;;1.10;1.00;;;7.60;98.00;;;;;;5112240;28;20540;-68
2021/10/27 08:15:11;;;;;;;1.50;1.50;;;7.60;98.00;;;;;;5111804;28;20556;-66
2021/10/27 08:17:41;;;;;;;2.17;1.40;;;7.70;98.00;;;;;;5112189;28;20456;-66
2021/10/27 08:20:11;;;;;;;1.20;1.10;;;7.80;98.00;;;;;;5112299;28;20482;-68
2021/10/27 08:22:42;;;;;;;3.27;1.40;;;7.90;98.00;;;;;;5111966;28;20519;-68
2021/10/27 08:25:18;;;;;;;1.20;1.10;;;7.90;98.00;;;;;;5112253;28;20902;-67
2021/10/27 08:27:45;;;;;;;1.30;1.20;;;8.10;98.00;;;;;;5113350;28;20459;-69
2021/10/27 08:30:14;;;;;;;7.13;2.13;;;8.00;98.00;;;;;;5115857;28;20457;-67
2021/10/27 08:32:45;;;;;;;2.80;1.47;;;8.00;98.00;;;;;;5115754;28;20456;-69
2021/10/27 08:35:14;;;;;;;1.80;1.70;;;8.00;98.00;;;;;;5116100;28;20979;-65
2021/10/27 08:37:43;;;;;;;1.30;1.10;;;8.10;98.00;;;;;;5115969;28;20459;-66
2021/10/27 08:40:12;;;;;;;1.60;1.47;;;8.20;98.00;;;;;;5116510;28;20546;-66
2021/10/27 08:42:41;;;;;;;2.70;1.80;;;8.30;98.00;;;;;;5115913;28;20453;-67
2021/10/27 08:45:09;;;;;;;2.30;1.60;;;8.30;98.00;;;;;;5115992;28;20444;-66
2021/10/27 08:47:39;;;;;;;2.50;1.53;;;8.30;98.00;;;;;;5116038;28;20454;-67
2021/10/27 08:50:08;;;;;;;1.30;1.17;;;8.30;98.00;;;;;;5115959;28;20460;-67
2021/10/27 08:52:35;;;;;;;1.37;1.33;;;8.40;98.00;;;;;;5115633;28;20526;-68
2021/10/27 08:55:04;;;;;;;1.37;1.07;;;8.60;98.00;;;;;;5115869;28;20488;-67
2021/10/27 08:57:32;;;;;;;1.50;1.23;;;8.90;98.00;;;;;;5115667;28;21022;-66
2021/10/27 09:00:05;;;;;;;1.63;1.60;;;9.10;98.00;;;;;;5115482;28;20523;-67
2021/10/27 09:02:50;;;;;;;1.73;1.30;;;9.30;98.00;;;;;;5115666;28;20457;-67
2021/10/27 09:44:24;;;;;;;1.50;1.50;;;9.90;98.00;;;;;;5112261;28;20455;-67
2021/10/27 10:06:29;;;;;;;7.77;5.63;;;11.40;98.00;;;;;;5096995;28;20523;-66
2021/10/27 10:08:57;;;;;;;6.20;4.27;;;11.50;98.00;;;;;;5107265;28;20542;-66
2021/10/27 10:11:25;;;;;;;3.77;2.90;;;11.50;98.00;;;;;;5101249;28;20777;-67
2021/10/27 10:13:53;;;;;;;11.43;2.33;;;11.60;98.00;;;;;;5095033;28;20488;-67
2021/10/27 10:16:20;;;;;;;2.90;2.00;;;11.60;98.00;;;;;;5099437;28;20463;-66
2021/10/27 10:18:50;;;;;;;2.93;2.30;;;11.70;98.00;;;;;;5092473;28;20950;-69
2021/10/27 10:21:22;;;;;;;2.93;2.00;;;11.90;98.00;;;;;;5102030;28;20459;-66
2021/10/27 10:23:49;;;;;;;6.50;2.27;;;12.20;98.00;;;;;;5103294;28;20451;-66
2021/10/27 10:26:30;;;;;;;2.87;2.10;;;12.30;98.00;;;;;;5097605;28;20510;-66
2021/10/27 10:28:57;;;;;;;2.73;2.53;;;12.40;98.00;;;;;;5096374;28;20588;-68
2021/10/27 10:31:32;;;;;;;4.03;2.03;;;12.50;98.00;;;;;;5104466;28;20460;-67
2021/10/27 10:34:04;;;;;;;2.20;2.00;;;12.50;98.00;;;;;;5092886;28;20515;-66
2021/10/27 10:36:34;;;;;;;1.63;1.60;;;12.70;98.00;;;;;;5098193;28;20542;-68
2021/10/27 10:41:58;;;;;;;10.03;4.23;;;13.00;98.00;;;;;;5087570;28;20471;-65
2021/10/27 11:02:56;;;;;;;3.37;2.13;;;14.90;98.00;;;;;;5094915;28;20468;-66
2021/10/27 11:23:36;;;;;;;2.13;1.73;;;16.90;98.00;;;;;;5090428;28;20447;-67
2021/10/27 11:26:47;;;;;;;2.00;1.70;;;17.60;98.00;;;;;;5090393;28;20541;-67
2021/10/27 11:40:35;;;;;;;2.93;1.73;;;18.50;98.00;;;;;;5079448;28;20589;-67
2021/10/27 11:43:08;;;;;;;4.20;1.77;;;18.10;98.00;;;;;;5100418;28;20479;-66
2021/10/27 11:45:53;;;;;;;2.43;1.90;;;18.20;98.00;;;;;;5096360;28;20452;-67
2021/10/27 11:48:31;;;;;;;3.00;1.97;;;18.40;98.00;;;;;;5108180;28;20958;-68
2021/10/27 11:50:59;;;;;;;2.53;1.80;;;18.60;98.00;;;;;;5091330;28;20448;-67
2021/10/27 11:53:28;;;;;;;1.53;1.50;;;18.70;98.00;;;;;;5098930;28;20490;-67
2021/10/27 11:55:55;;;;;;;1.77;1.63;;;18.40;98.00;;;;;;5099478;28;20829;-66
2021/10/27 11:58:36;;;;;;;2.03;1.83;;;18.30;98.00;;;;;;5110746;28;21108;-67
2021/10/27 12:01:05;;;;;;;1.90;1.43;;;18.20;98.00;;;;;;5112031;28;20477;-66
2021/10/27 12:03:42;;;;;;;2.70;1.47;;;18.30;97.60;;;;;;5111798;28;21132;-67
2021/10/27 12:06:26;;;;;;;1.90;1.40;;;18.20;97.10;;;;;;5110672;28;20458;-67
2021/10/27 12:12:04;;;;;;;1.40;1.33;;;18.10;98.00;;;;;;5053959;28;20446;-67
2021/10/27 12:15:10;;;;;;;1.93;1.70;;;18.20;98.00;;;;;;5112193;28;20482;-67
2021/10/27 12:17:39;;;;;;;2.90;1.30;;;18.30;97.40;;;;;;5112096;28;20803;-66
2021/10/27 12:20:08;;;;;;;2.40;1.43;;;18.30;96.80;;;;;;5112351;28;20451;-68
2021/10/27 12:22:36;;;;;;;2.23;1.40;;;18.40;96.70;;;;;;5112142;28;20887;-66
2021/10/27 12:25:07;;;;;;;1.30;1.30;;;18.30;97.00;;;;;;5112209;28;20533;-66
2021/10/27 12:27:35;;;;;;;1.40;1.27;;;18.30;97.30;;;;;;5112232;28;20454;-68
2021/10/27 12:30:06;;;;;;;3.30;1.30;;;18.40;96.50;;;;;;5112032;28;20545;-67
2021/10/27 12:32:35;;;;;;;1.30;1.23;;;18.40;96.30;;;;;;5111805;28;20494;-68
2021/10/27 12:35:08;;;;;;;1.20;1.20;;;18.50;95.70;;;;;;5112085;28;20536;-68
2021/10/27 12:37:39;;;;;;;1.47;1.07;;;18.30;96.30;;;;;;5112127;28;20446;-67
2021/10/27 12:40:23;;;;;;;1.83;1.40;;;18.30;96.40;;;;;;5112065;28;20467;-68
2021/10/27 12:43:00;;;;;;;1.30;1.20;;;18.20;95.80;;;;;;5111959;28;20451;-67
2021/10/27 12:45:37;;;;;;;2.13;1.30;;;18.30;96.10;;;;;;5111768;28;21008;-67
2021/10/27 12:48:06;;;;;;;1.53;1.50;;;18.30;95.40;;;;;;5111844;28;20941;-67
2021/10/27 12:50:33;;;;;;;3.10;2.07;;;18.40;95.40;;;;;;5111975;28;20451;-66
2021/10/27 12:53:02;;;;;;;1.60;1.30;;;18.60;94.00;;;;;;5111606;28;20446;-68
2021/10/27 12:55:31;;;;;;;2.43;1.70;;;18.60;93.60;;;;;;5111662;28;20474;-67
2021/10/27 12:58:08;;;;;;;2.33;1.43;;;18.80;94.20;;;;;;5111390;28;20866;-67
2021/10/27 13:00:59;;;;;;;1.50;1.33;;;18.70;93.40;;;;;;5111239;28;20447;-68
2021/10/27 13:03:58;;;;;;;1.37;1.30;;;18.60;92.90;;;;;;5111064;28;20451;-68
2021/10/27 13:09:30;;;;;;;1.30;1.10;;;18.60;92.20;;;;;;5086084;28;20455;-67
2021/10/27 13:20:31;;;;;;;1.77;1.30;;;18.80;93.10;;;;;;5115392;28;20442;-67
2021/10/27 13:31:12;;;;;;;1.30;1.20;;;18.00;95.60;;;;;;5115205;28;20442;-68
2021/10/27 13:33:41;;;;;;;2.17;1.40;;;17.90;97.70;;;;;;5115160;28;20459;-68
2021/10/27 13:36:08;;;;;;;1.20;1.20;;;17.80;95.20;;;;;;5115006;28;20479;-70
2021/10/27 13:38:36;;;;;;;2.03;1.57;;;17.90;95.00;;;;;;5114847;28;20493;-69
2021/10/27 13:41:06;;;;;;;1.20;1.17;;;17.90;96.10;;;;;;5114987;28;20531;-68
2021/10/27 13:43:37;;;;;;;1.97;1.30;;;17.90;95.40;;;;;;5114851;28;20500;-68
2021/10/27 13:49:09;;;;;;;1.20;1.20;;;17.90;96.00;;;;;;5115013;28;20450;-69
2021/10/27 14:08:09;;;;;;;1.30;1.27;;;20.70;89.00;;;;;;5101330;28;20509;-69
2021/10/27 14:10:42;;;;;;;1.70;1.60;;;20.90;89.70;;;;;;5101327;28;20459;-68
2021/10/27 14:13:20;;;;;;;1.93;1.80;;;21.10;88.00;;;;;;5108899;28;21061;-69
2021/10/27 14:18:44;;;;;;;1.70;1.40;;;21.60;88.40;;;;;;5075252;28;20452;-70
2021/10/27 14:41:18;;;;;;;1.70;1.30;;;21.70;86.50;;;;;;5075695;28;20457;-70
2021/10/27 15:19:41;;;;;;;1.30;1.30;;;21.60;90.20;;;;;;5093052;28;20431;-69
2021/10/27 15:22:13;;;;;;;1.80;1.63;;;21.20;91.50;;;;;;5098388;28;20463;-69
2021/10/27 15:25:19;;;;;;;1.63;1.37;;;21.20;91.70;;;;;;5100076;28;20459;-69
2021/10/27 15:31:09;;;;;;;2.27;1.50;;;20.50;92.80;;;;;;5027206;28;20466;-69
2021/10/27 15:36:27;;;;;;;1.70;1.40;;;19.30;96.60;;;;;;5072371;28;20632;-70
2021/10/27 15:41:52;;;;;;;1.37;1.33;;;18.20;98.00;;;;;;5090924;28;20558;-69
2021/10/27 15:44:31;;;;;;;1.30;1.20;;;17.70;98.00;;;;;;5085116;28;20447;-70
2021/10/27 15:52:34;;;;;;;1.40;1.20;;;15.80;98.00;;;;;;5071638;28;20463;-68
2021/10/27 15:55:01;;;;;;;1.37;1.20;;;15.40;98.00;;;;;;5107440;28;20933;-67
2021/10/27 15:57:28;;;;;;;1.60;1.37;;;15.00;98.00;;;;;;5099633;28;20861;-66
2021/10/27 15:59:57;;;;;;;1.60;1.40;;;14.70;98.00;;;;;;5100127;28;20473;-67
2021/10/27 16:02:24;;;;;;;1.40;1.30;;;14.40;98.00;;;;;;5112501;28;20475;-68
2021/10/27 16:04:53;;;;;;;2.93;1.37;;;14.10;98.00;;;;;;5094199;28;20840;-67
2021/10/27 16:07:20;;;;;;;1.50;1.20;;;13.90;98.00;;;;;;5111165;28;20475;-68
2021/10/27 16:09:50;;;;;;;1.47;1.40;;;13.80;98.00;;;;;;5111691;28;20462;-67
2021/10/27 16:12:17;;;;;;;2.27;1.30;;;13.80;98.00;;;;;;5112270;28;20451;-67
2021/10/27 16:14:46;;;;;;;2.87;1.40;;;13.60;98.00;;;;;;5112301;28;20483;-67
2021/10/27 16:17:14;;;;;;;2.10;1.80;;;13.50;98.00;;;;;;5112004;28;20475;-66
2021/10/27 16:19:41;;;;;;;1.93;1.53;;;13.30;98.00;;;;;;5112216;28;20498;-67
2021/10/27 16:22:10;;;;;;;1.97;1.50;;;13.20;98.00;;;;;;5112269;28;20516;-67
2021/10/27 16:24:37;;;;;;;1.20;1.10;;;13.00;98.00;;;;;;5112226;28;20483;-66
2021/10/27 16:27:05;;;;;;;1.30;1.17;;;12.80;98.00;;;;;;5112216;28;20455;-67
2021/10/27 16:29:32;;;;;;;1.83;1.27;;;12.80;98.00;;;;;;5112220;28;20485;-66
2021/10/27 16:32:00;;;;;;;1.20;1.10;;;12.90;98.00;;;;;;5112229;28;20458;-66
2021/10/27 16:34:28;;;;;;;1.60;1.40;;;12.80;98.00;;;;;;5112095;28;20514;-67
2021/10/27 16:36:55;;;;;;;1.70;1.30;;;12.70;98.00;;;;;;5112292;28;20484;-67
2021/10/27 16:39:22;;;;;;;1.57;1.40;;;12.70;98.00;;;;;;5110938;28;20495;-66
2021/10/27 16:41:51;;;;;;;1.40;1.10;;;12.60;98.00;;;;;;5112180;28;20484;-67
2021/10/27 16:44:18;;;;;;;1.53;1.30;;;12.50;98.00;;;;;;5111701;28;21212;-67
2021/10/27 16:46:45;;;;;;;1.20;1.10;;;12.40;98.00;;;;;;5111860;28;20453;-67
2021/10/27 16:49:13;;;;;;;1.30;1.30;;;12.10;98.00;;;;;;5113885;28;20468;-69
2021/10/27 16:51:41;;;;;;;1.20;1.13;;;12.10;98.00;;;;;;5115777;28;20549;-69
2021/10/27 16:54:09;;;;;;;1.40;1.13;;;12.00;98.00;;;;;;5115671;28;20469;-68
2021/10/27 16:56:37;;;;;;;1.30;1.17;;;11.90;98.00;;;;;;5115647;28;20488;-68
2021/10/27 16:59:14;;;;;;;1.63;1.43;;;11.90;98.00;;;;;;5115676;28;20469;-68
2021/10/27 17:01:43;;;;;;;1.30;1.30;;;12.00;98.00;;;;;;5115464;28;20460;-69
2021/10/27 17:04:11;;;;;;;1.77;1.30;;;12.00;98.00;;;;;;5115844;28;20458;-68
2021/10/27 17:06:38;;;;;;;1.33;1.27;;;12.00;98.00;;;;;;5114318;28;20846;-69
2021/10/27 17:09:07;;;;;;;1.50;1.30;;;12.00;98.00;;;;;;5114484;28;20944;-68
2021/10/27 17:11:34;;;;;;;1.80;1.63;;;12.10;98.00;;;;;;5115328;28;20541;-68
2021/10/27 17:14:02;;;;;;;1.47;1.20;;;11.80;98.00;;;;;;5114354;28;20462;-68
2021/10/27 17:16:32;;;;;;;1.40;1.13;;;11.90;98.00;;;;;;5115374;28;20485;-68